Kerteh Airport Kerteh MY
ICAO: WMKE
IATA:
Category: Medium
Scheduled Services:

Elevation: 18 ft
TransAlt. 11000 ft.

Airport Communications:
GND:121.8
TWR:123.3

WMKE Zoom In..

If you have problems with the map follow the link
https://www.worldairports.se/pages/airport.php?
ICAO=WMKE

Runways:

(A) RW 16 length 4469 ft width 98 ft
---- / hdg 162

(B) RW 34 length 4469 ft width 98 ft
ILS 108.70 / hdg 342

Location; WMKE
Day. 05 / Time. 15.00 Zulu
* QNH: 1013
* Temperature: 26° c. 78.8°f.
* Wind from: 320° Speed 03 kn.
Dewpoint: 23° c.

WMKE 051500Z AUTO 32003KT 250V060 //// // ////// 26/23 Q1013


Wind From 320°
Speed 03 kn.

 
 
jpsmedia worldairports.se 2019   terms of use